Aviation Digital Data Service (ADDS)

Output produced by METARs form (1210 UTC 19 January 2019)
found at http://www.aviationweather.gov/metar/data/
 
METAR text: EGCC 191150Z AUTO 13006KT 070V170 9999 -RA OVC012 04/01 Q1008 NOSIG
Conditions at: EGCC (MANCHESTER INTL , GB) observed 1150 UTC 19 January 2019
Temperature: 4.0°C (39°F)
Dewpoint: 1.0°C (34°F) [RH = 81%]
Pressure (altimeter): 29.76 inches Hg (1008.0 mb)
Winds: from the SE (130 degrees) at 7 MPH (6 knots; 3.1 m/s)
Visibility: 6 or more miles (10+ km)
Ceiling: 1200 feet AGL
Clouds: overcast cloud deck at 1200 feet AGL
Weather: -RA  (light rain)

METAR text: EGCC 191120Z AUTO 12005KT 020V170 9999 OVC011 04/01 Q1008
Conditions at: EGCC (MANCHESTER INTL , GB) observed 1120 UTC 19 January 2019
Temperature: 4.0°C (39°F)
Dewpoint: 1.0°C (34°F) [RH = 81%]
Pressure (altimeter): 29.76 inches Hg (1008.0 mb)
Winds: from the ESE (120 degrees) at 6 MPH (5 knots; 2.6 m/s)
Visibility: 6 or more miles (10+ km)
Ceiling: 1100 feet AGL
Clouds: overcast cloud deck at 1100 feet AGL
Weather: no significant weather observed at this time

METAR text: EGCC 191050Z AUTO 13004KT 090V190 9999 OVC011 04/01 Q1008 NOSIG
Conditions at: EGCC (MANCHESTER INTL , GB) observed 1050 UTC 19 January 2019
Temperature: 4.0°C (39°F)
Dewpoint: 1.0°C (34°F) [RH = 81%]
Pressure (altimeter): 29.76 inches Hg (1008.0 mb)
Winds: from the SE (130 degrees) at 5 MPH (4 knots; 2.1 m/s)
Visibility: 6 or more miles (10+ km)
Ceiling: 1100 feet AGL
Clouds: overcast cloud deck at 1100 feet AGL
Weather: no significant weather observed at this time

METAR text: EGCC 191020Z AUTO 13004KT 050V200 9999 OVC011 04/01 Q1008 NOSIG
Conditions at: EGCC (MANCHESTER INTL , GB) observed 1020 UTC 19 January 2019
Temperature: 4.0°C (39°F)
Dewpoint: 1.0°C (34°F) [RH = 81%]
Pressure (altimeter): 29.76 inches Hg (1008.0 mb)
Winds: from the SE (130 degrees) at 5 MPH (4 knots; 2.1 m/s)
Visibility: 6 or more miles (10+ km)
Ceiling: 1100 feet AGL
Clouds: overcast cloud deck at 1100 feet AGL
Weather: no significant weather observed at this time

METAR text: EGCC 190950Z AUTO 13006KT 050V170 9999 BKN011 OVC032 04/01 Q1008 NOSIG
Conditions at: EGCC (MANCHESTER INTL , GB) observed 0950 UTC 19 January 2019
Temperature: 4.0°C (39°F)
Dewpoint: 1.0°C (34°F) [RH = 81%]
Pressure (altimeter): 29.76 inches Hg (1008.0 mb)
Winds: from the SE (130 degrees) at 7 MPH (6 knots; 3.1 m/s)
Visibility: 6 or more miles (10+ km)
Ceiling: 1100 feet AGL
Clouds: broken clouds at 1100 feet AGL
overcast cloud deck at 3200 feet AGL
Weather: no significant weather observed at this time

METAR text: EGCC 190920Z AUTO 12006KT 070V180 9999 BKN011 OVC032 04/01 Q1007 NOSIG
Conditions at: EGCC (MANCHESTER INTL , GB) observed 0920 UTC 19 January 2019
Temperature: 4.0°C (39°F)
Dewpoint: 1.0°C (34°F) [RH = 81%]
Pressure (altimeter): 29.73 inches Hg (1007.0 mb)
Winds: from the ESE (120 degrees) at 7 MPH (6 knots; 3.1 m/s)
Visibility: 6 or more miles (10+ km)
Ceiling: 1100 feet AGL
Clouds: broken clouds at 1100 feet AGL
overcast cloud deck at 3200 feet AGL
Weather: no significant weather observed at this time

METAR text: EGCC 190850Z AUTO 13006KT 080V190 9999 OVC011 04/01 Q1007 NOSIG
Conditions at: EGCC (MANCHESTER INTL , GB) observed 0850 UTC 19 January 2019
Temperature: 4.0°C (39°F)
Dewpoint: 1.0°C (34°F) [RH = 81%]
Pressure (altimeter): 29.73 inches Hg (1007.0 mb)
Winds: from the SE (130 degrees) at 7 MPH (6 knots; 3.1 m/s)
Visibility: 6 or more miles (10+ km)
Ceiling: 1100 feet AGL
Clouds: overcast cloud deck at 1100 feet AGL
Weather: no significant weather observed at this time

METAR text: EGCC 190820Z AUTO 14005KT 100V170 9999 OVC011 04/01 Q1007 NOSIG
Conditions at: EGCC (MANCHESTER INTL , GB) observed 0820 UTC 19 January 2019
Temperature: 4.0°C (39°F)
Dewpoint: 1.0°C (34°F) [RH = 81%]
Pressure (altimeter): 29.73 inches Hg (1007.0 mb)
Winds: from the SE (140 degrees) at 6 MPH (5 knots; 2.6 m/s)
Visibility: 6 or more miles (10+ km)
Ceiling: 1100 feet AGL
Clouds: overcast cloud deck at 1100 feet AGL
Weather: no significant weather observed at this time

METAR text: EGCC 190750Z AUTO 13006KT 080V190 9999 OVC010 04/01 Q1007 NOSIG
Conditions at: EGCC (MANCHESTER INTL , GB) observed 0750 UTC 19 January 2019
Temperature: 4.0°C (39°F)
Dewpoint: 1.0°C (34°F) [RH = 81%]
Pressure (altimeter): 29.73 inches Hg (1007.0 mb)
Winds: from the SE (130 degrees) at 7 MPH (6 knots; 3.1 m/s)
Visibility: 6 or more miles (10+ km)
Ceiling: 1000 feet AGL
Clouds: overcast cloud deck at 1000 feet AGL
Weather: no significant weather observed at this time

METAR text: EGCC 190720Z AUTO 13005KT 070V170 9999 OVC010 04/01 Q1007 NOSIG
Conditions at: EGCC (MANCHESTER INTL , GB) observed 0720 UTC 19 January 2019
Temperature: 4.0°C (39°F)
Dewpoint: 1.0°C (34°F) [RH = 81%]
Pressure (altimeter): 29.73 inches Hg (1007.0 mb)
Winds: from the SE (130 degrees) at 6 MPH (5 knots; 2.6 m/s)
Visibility: 6 or more miles (10+ km)
Ceiling: 1000 feet AGL
Clouds: overcast cloud deck at 1000 feet AGL
Weather: no significant weather observed at this time

METAR text: EGCC 190650Z AUTO 13006KT 060V180 9999 BKN011 OVC039 03/01 Q1006 NOSIG
Conditions at: EGCC (MANCHESTER INTL , GB) observed 0650 UTC 19 January 2019
Temperature: 3.0°C (37°F)
Dewpoint: 1.0°C (34°F) [RH = 87%]
Pressure (altimeter): 29.70 inches Hg (1006.0 mb)
Winds: from the SE (130 degrees) at 7 MPH (6 knots; 3.1 m/s)
Visibility: 6 or more miles (10+ km)
Ceiling: 1100 feet AGL
Clouds: broken clouds at 1100 feet AGL
overcast cloud deck at 3900 feet AGL
Weather: no significant weather observed at this time

METAR text: EGCC 190620Z AUTO 14006KT 080V190 9999 SCT012 BKN034 03/01 Q1006 TEMPO BKN012
Conditions at: EGCC (MANCHESTER INTL , GB) observed 0620 UTC 19 January 2019
Temperature: 3.0°C (37°F)
Dewpoint: 1.0°C (34°F) [RH = 87%]
Pressure (altimeter): 29.70 inches Hg (1006.0 mb)
Winds: from the SE (140 degrees) at 7 MPH (6 knots; 3.1 m/s)
Visibility: 6 or more miles (10+ km)
Ceiling: 3400 feet AGL
Clouds: scattered clouds at 1200 feet AGL
broken clouds at 3400 feet AGL
Weather: no significant weather observed at this time

METAR text: EGCC 190550Z AUTO 14007KT 100V200 9999 BKN013 03/01 Q1007 NOSIG
Conditions at: EGCC (MANCHESTER INTL , GB) observed 0550 UTC 19 January 2019
Temperature: 3.0°C (37°F)
Dewpoint: 1.0°C (34°F) [RH = 87%]
Pressure (altimeter): 29.73 inches Hg (1007.0 mb)
Winds: from the SE (140 degrees) at 8 MPH (7 knots; 3.6 m/s)
Visibility: 6 or more miles (10+ km)
Ceiling: 1300 feet AGL
Clouds: broken clouds at 1300 feet AGL
Weather: no significant weather observed at this time

METAR text: EGCC 190520Z AUTO 14007KT 100V240 9999 BKN013 OVC043 03/01 Q1007 NOSIG
Conditions at: EGCC (MANCHESTER INTL , GB) observed 0520 UTC 19 January 2019
Temperature: 3.0°C (37°F)
Dewpoint: 1.0°C (34°F) [RH = 87%]
Pressure (altimeter): 29.73 inches Hg (1007.0 mb)
Winds: from the SE (140 degrees) at 8 MPH (7 knots; 3.6 m/s)
Visibility: 6 or more miles (10+ km)
Ceiling: 1300 feet AGL
Clouds: broken clouds at 1300 feet AGL
overcast cloud deck at 4300 feet AGL
Weather: no significant weather observed at this time

METAR text: EGCC 190450Z AUTO 15007KT 100V210 9999 OVC013 03/00 Q1007 NOSIG
Conditions at: EGCC (MANCHESTER INTL , GB) observed 0450 UTC 19 January 2019
Temperature: 3.0°C (37°F)
Dewpoint: 0.0°C (32°F) [RH = 81%]
Pressure (altimeter): 29.73 inches Hg (1007.0 mb)
Winds: from the SSE (150 degrees) at 8 MPH (7 knots; 3.6 m/s)
Visibility: 6 or more miles (10+ km)
Ceiling: 1300 feet AGL
Clouds: overcast cloud deck at 1300 feet AGL
Weather: no significant weather observed at this time

METAR text: EGCC 190420Z AUTO VRB05KT 9999 OVC014 03/00 Q1007 NOSIG
Conditions at: EGCC (MANCHESTER INTL , GB) observed 0420 UTC 19 January 2019
Temperature: 3.0°C (37°F)
Dewpoint: 0.0°C (32°F) [RH = 81%]
Pressure (altimeter): 29.73 inches Hg (1007.0 mb)
Winds: variable direction winds at 6 MPH (5 knots; 2.6 m/s)
Visibility: 6 or more miles (10+ km)
Ceiling: 1400 feet AGL
Clouds: overcast cloud deck at 1400 feet AGL
Weather: no significant weather observed at this time

METAR text: EGCC 190350Z AUTO 15006KT 110V200 9999 OVC017 03/00 Q1007 TEMPO BKN013
Conditions at: EGCC (MANCHESTER INTL , GB) observed 0350 UTC 19 January 2019
Temperature: 3.0°C (37°F)
Dewpoint: 0.0°C (32°F) [RH = 81%]
Pressure (altimeter): 29.73 inches Hg (1007.0 mb)
Winds: from the SSE (150 degrees) at 7 MPH (6 knots; 3.1 m/s)
Visibility: 6 or more miles (10+ km)
Ceiling: 1700 feet AGL
Clouds: overcast cloud deck at 1700 feet AGL
Weather: no significant weather observed at this time

METAR text: EGCC 190320Z AUTO 15006KT 110V220 9999 OVC017 03/00 Q1007 TEMPO BKN014
Conditions at: EGCC (MANCHESTER INTL , GB) observed 0320 UTC 19 January 2019
Temperature: 3.0°C (37°F)
Dewpoint: 0.0°C (32°F) [RH = 81%]
Pressure (altimeter): 29.73 inches Hg (1007.0 mb)
Winds: from the SSE (150 degrees) at 7 MPH (6 knots; 3.1 m/s)
Visibility: 6 or more miles (10+ km)
Ceiling: 1700 feet AGL
Clouds: overcast cloud deck at 1700 feet AGL
Weather: no significant weather observed at this time

METAR text: EGCC 190250Z AUTO VRB05KT 9999 BKN019 03/M00 Q1007 TEMPO BKN014
Conditions at: EGCC (MANCHESTER INTL , GB) observed 0250 UTC 19 January 2019
Temperature: 3.0°C (37°F)
Dewpoint: 0.0°C (32°F) [RH = 81%]
Pressure (altimeter): 29.73 inches Hg (1007.0 mb)
Winds: variable direction winds at 6 MPH (5 knots; 2.6 m/s)
Visibility: 6 or more miles (10+ km)
Ceiling: 1900 feet AGL
Clouds: broken clouds at 1900 feet AGL
Weather: no significant weather observed at this time

METAR text: EGCC 190220Z AUTO VRB05KT 9999 OVC019 03/M00 Q1008 TEMPO BKN013
Conditions at: EGCC (MANCHESTER INTL , GB) observed 0220 UTC 19 January 2019
Temperature: 3.0°C (37°F)
Dewpoint: 0.0°C (32°F) [RH = 81%]
Pressure (altimeter): 29.76 inches Hg (1008.0 mb)
Winds: variable direction winds at 6 MPH (5 knots; 2.6 m/s)
Visibility: 6 or more miles (10+ km)
Ceiling: 1900 feet AGL
Clouds: overcast cloud deck at 1900 feet AGL
Weather: no significant weather observed at this time

METAR text: EGCC 190150Z AUTO 16006KT 110V230 9999 -RA FEW013 OVC017 03/00 Q1008 TEMPO BKN013
Conditions at: EGCC (MANCHESTER INTL , GB) observed 0150 UTC 19 January 2019
Temperature: 3.0°C (37°F)
Dewpoint: 0.0°C (32°F) [RH = 81%]
Pressure (altimeter): 29.76 inches Hg (1008.0 mb)
Winds: from the SSE (160 degrees) at 7 MPH (6 knots; 3.1 m/s)
Visibility: 6 or more miles (10+ km)
Ceiling: 1700 feet AGL
Clouds: few clouds at 1300 feet AGL
overcast cloud deck at 1700 feet AGL
Weather: -RA  (light rain)

METAR text: EGCC 190120Z AUTO 16006KT 090V230 9999 OVC011 03/M00 Q1008 TEMPO BKN008
Conditions at: EGCC (MANCHESTER INTL , GB) observed 0120 UTC 19 January 2019
Temperature: 3.0°C (37°F)
Dewpoint: 0.0°C (32°F) [RH = 81%]
Pressure (altimeter): 29.76 inches Hg (1008.0 mb)
Winds: from the SSE (160 degrees) at 7 MPH (6 knots; 3.1 m/s)
Visibility: 6 or more miles (10+ km)
Ceiling: 1100 feet AGL
Clouds: overcast cloud deck at 1100 feet AGL
Weather: no significant weather observed at this time

METAR text: EGCC 190050Z AUTO 16005KT 110V230 9999 OVC013 03/M00 Q1008 TEMPO BKN008
Conditions at: EGCC (MANCHESTER INTL , GB) observed 0050 UTC 19 January 2019
Temperature: 3.0°C (37°F)
Dewpoint: 0.0°C (32°F) [RH = 81%]
Pressure (altimeter): 29.76 inches Hg (1008.0 mb)
Winds: from the SSE (160 degrees) at 6 MPH (5 knots; 2.6 m/s)
Visibility: 6 or more miles (10+ km)
Ceiling: 1300 feet AGL
Clouds: overcast cloud deck at 1300 feet AGL
Weather: no significant weather observed at this time

METAR text: EGCC 190020Z AUTO 15007KT 090V220 9999 BKN018 OVC046 03/M00 Q1008 TEMPO 6000 -DZ BKN008
Conditions at: EGCC (MANCHESTER INTL , GB) observed 0020 UTC 19 January 2019
Temperature: 3.0°C (37°F)
Dewpoint: 0.0°C (32°F) [RH = 81%]
Pressure (altimeter): 29.76 inches Hg (1008.0 mb)
Winds: from the SSE (150 degrees) at 8 MPH (7 knots; 3.6 m/s)
Visibility: 6 or more miles (10+ km)
Ceiling: 1800 feet AGL
Clouds: broken clouds at 1800 feet AGL
overcast cloud deck at 4600 feet AGL
Weather: no significant weather observed at this time

METAR text: EGCC 182350Z AUTO VRB04KT 9999 BKN016 OVC046 03/M00 Q1008 TEMPO 6000 -DZ BKN008
Conditions at: EGCC (MANCHESTER INTL , GB) observed 2350 UTC 18 January 2019
Temperature: 3.0°C (37°F)
Dewpoint: 0.0°C (32°F) [RH = 81%]
Pressure (altimeter): 29.76 inches Hg (1008.0 mb)
Winds: variable direction winds at 5 MPH (4 knots; 2.1 m/s)
Visibility: 6 or more miles (10+ km)
Ceiling: 1600 feet AGL
Clouds: broken clouds at 1600 feet AGL
overcast cloud deck at 4600 feet AGL
Weather: no significant weather observed at this time

METAR text: EGCC 182320Z AUTO 17006KT 100V270 9999 OVC019 03/M00 Q1008 NOSIG
Conditions at: EGCC (MANCHESTER INTL , GB) observed 2320 UTC 18 January 2019
Temperature: 3.0°C (37°F)
Dewpoint: 0.0°C (32°F) [RH = 81%]
Pressure (altimeter): 29.76 inches Hg (1008.0 mb)
Winds: from the S (170 degrees) at 7 MPH (6 knots; 3.1 m/s)
Visibility: 6 or more miles (10+ km)
Ceiling: 1900 feet AGL
Clouds: overcast cloud deck at 1900 feet AGL
Weather: no significant weather observed at this time

METAR text: EGCC 182250Z AUTO 16007KT 090V240 9999 OVC020 03/M01 Q1008
Conditions at: EGCC (MANCHESTER INTL , GB) observed 2250 UTC 18 January 2019
Temperature: 3.0°C (37°F)
Dewpoint: -1.0°C (30°F) [RH = 75%]
Pressure (altimeter): 29.76 inches Hg (1008.0 mb)
Winds: from the SSE (160 degrees) at 8 MPH (7 knots; 3.6 m/s)
Visibility: 6 or more miles (10+ km)
Ceiling: 2000 feet AGL
Clouds: overcast cloud deck at 2000 feet AGL
Weather: no significant weather observed at this time

METAR text: EGCC 182220Z AUTO 16006KT 090V230 9999 OVC020/// //////TCU 03/M01 Q1009 TEMPO BKN014
Conditions at: EGCC (MANCHESTER INTL , GB) observed 2220 UTC 18 January 2019
Temperature: 3.0°C (37°F)
Dewpoint: -1.0°C (30°F) [RH = 75%]
Pressure (altimeter): 29.79 inches Hg (1009.0 mb)
Winds: from the SSE (160 degrees) at 7 MPH (6 knots; 3.1 m/s)
Visibility: 6 or more miles (10+ km)
Ceiling: 2000 feet AGL
Clouds: overcast cloud deck at 2000 feet AGL
Weather: no significant weather observed at this time

METAR text: EGCC 182150Z AUTO 16006G16KT 100V220 9999 OVC022/// //////TCU 03/M01 Q1009 NOSIG
Conditions at: EGCC (MANCHESTER INTL , GB) observed 2150 UTC 18 January 2019
Temperature: 3.0°C (37°F)
Dewpoint: -1.0°C (30°F) [RH = 75%]
Pressure (altimeter): 29.79 inches Hg (1009.0 mb)
Winds: from the SSE (160 degrees) at 7 MPH (6 knots; 3.1 m/s)
gusting to 18 MPH (16 knots; 8.2 m/s)
Visibility: 6 or more miles (10+ km)
Ceiling: 2200 feet AGL
Clouds: overcast cloud deck at 2200 feet AGL
Weather: no significant weather observed at this time

METAR text: EGCC 182120Z AUTO 17006KT 110V210 9999 OVC023 02/M01 Q1009
Conditions at: EGCC (MANCHESTER INTL , GB) observed 2120 UTC 18 January 2019
Temperature: 2.0°C (36°F)
Dewpoint: -1.0°C (30°F) [RH = 80%]
Pressure (altimeter): 29.79 inches Hg (1009.0 mb)
Winds: from the S (170 degrees) at 7 MPH (6 knots; 3.1 m/s)
Visibility: 6 or more miles (10+ km)
Ceiling: 2300 feet AGL
Clouds: overcast cloud deck at 2300 feet AGL
Weather: no significant weather observed at this time

METAR text: EGCC 182050Z 16007KT 110V220 9999 -RA BKN023TCU OVC032 02/M01 Q1009
Conditions at: EGCC (MANCHESTER INTL , GB) observed 2050 UTC 18 January 2019
Temperature: 2.0°C (36°F)
Dewpoint: -1.0°C (30°F) [RH = 80%]
Pressure (altimeter): 29.79 inches Hg (1009.0 mb)
Winds: from the SSE (160 degrees) at 8 MPH (7 knots; 3.6 m/s)
Visibility: 6 or more miles (10+ km)
Ceiling: 2300 feet AGL
Clouds: broken clouds at 2300 feet AGL
overcast cloud deck at 3200 feet AGL
Weather: -RA  (light rain)

METAR text: EGCC 182020Z 15006G17KT 060V230 9999 -RA BKN025TCU BKN031 OVC046 02/M01 Q1009 NOSIG
Conditions at: EGCC (MANCHESTER INTL , GB) observed 2020 UTC 18 January 2019
Temperature: 2.0°C (36°F)
Dewpoint: -1.0°C (30°F) [RH = 80%]
Pressure (altimeter): 29.79 inches Hg (1009.0 mb)
Winds: from the SSE (150 degrees) at 7 MPH (6 knots; 3.1 m/s)
gusting to 20 MPH (17 knots; 8.7 m/s)
Visibility: 6 or more miles (10+ km)
Ceiling: 2500 feet AGL
Clouds: broken clouds at 2500 feet AGL
broken clouds at 3100 feet AGL
overcast cloud deck at 4600 feet AGL
Weather: -RA  (light rain)

METAR text: EGCC 181950Z VRB07G18KT 9999 -RA SCT028TCU SCT035 OVC046 02/M01 Q1009 TEMPO BKN008
Conditions at: EGCC (MANCHESTER INTL , GB) observed 1950 UTC 18 January 2019
Temperature: 2.0°C (36°F)
Dewpoint: -1.0°C (30°F) [RH = 80%]
Pressure (altimeter): 29.79 inches Hg (1009.0 mb)
Winds: variable direction winds at 8 MPH (7 knots; 3.6 m/s)
gusting to 21 MPH (18 knots; 9.3 m/s)
Visibility: 6 or more miles (10+ km)
Ceiling: 4600 feet AGL
Clouds: scattered clouds at 2800 feet AGL
scattered clouds at 3500 feet AGL
overcast cloud deck at 4600 feet AGL
Weather: -RA  (light rain)

METAR text: EGCC 181920Z 14005KT 040V220 4400 -SNRA BKN006TCU BKN011 OVC024 01/M01 Q1010 RESN TEMPO 6000 -RASN SCT006 BKN011
Conditions at: EGCC (MANCHESTER INTL , GB) observed 1920 UTC 18 January 2019
Temperature: 1.0°C (34°F)
Dewpoint: -1.0°C (30°F) [RH = 86%]
Pressure (altimeter): 29.82 inches Hg (1010.0 mb)
Winds: from the SE (140 degrees) at 6 MPH (5 knots; 2.6 m/s)
Visibility: 2.73 miles (4.39 km)
Ceiling: 600 feet AGL
Clouds: broken clouds at 600 feet AGL
broken clouds at 1100 feet AGL
overcast cloud deck at 2400 feet AGL
Weather: -SN -RA  (light snow, light rain)

METAR text: EGCC 181850Z AUTO 16005KT 120V200 9999 -RA BKN008/// BKN015/// //////TCU 01/M01 Q1010 TEMPO RA
Conditions at: EGCC (MANCHESTER INTL , GB) observed 1850 UTC 18 January 2019
Temperature: 1.0°C (34°F)
Dewpoint: -1.0°C (30°F) [RH = 86%]
Pressure (altimeter): 29.82 inches Hg (1010.0 mb)
Winds: from the SSE (160 degrees) at 6 MPH (5 knots; 2.6 m/s)
Visibility: 6 or more miles (10+ km)
Ceiling: 800 feet AGL
Clouds: broken clouds at 800 feet AGL
broken clouds at 1500 feet AGL
Weather: -RA  (light rain)

METAR text: EGCC 181820Z AUTO VRB07KT 9999 -RA BKN011 BKN024 02/M01 Q1010 TEMPO SCT011
Conditions at: EGCC (MANCHESTER INTL , GB) observed 1820 UTC 18 January 2019
Temperature: 2.0°C (36°F)
Dewpoint: -1.0°C (30°F) [RH = 80%]
Pressure (altimeter): 29.82 inches Hg (1010.0 mb)
Winds: variable direction winds at 8 MPH (7 knots; 3.6 m/s)
Visibility: 6 or more miles (10+ km)
Ceiling: 1100 feet AGL
Clouds: broken clouds at 1100 feet AGL
broken clouds at 2400 feet AGL
Weather: -RA  (light rain)

METAR text: EGCC 181750Z AUTO 15008KT 090V180 9999 -RA SCT012 BKN034 BKN041 02/M01 Q1010 TEMPO BKN012
Conditions at: EGCC (MANCHESTER INTL , GB) observed 1750 UTC 18 January 2019
Temperature: 2.0°C (36°F)
Dewpoint: -1.0°C (30°F) [RH = 80%]
Pressure (altimeter): 29.82 inches Hg (1010.0 mb)
Winds: from the SSE (150 degrees) at 9 MPH (8 knots; 4.1 m/s)
Visibility: 6 or more miles (10+ km)
Ceiling: 3400 feet AGL
Clouds: scattered clouds at 1200 feet AGL
broken clouds at 3400 feet AGL
broken clouds at 4100 feet AGL
Weather: -RA  (light rain)

METAR text: EGCC 181720Z AUTO 15008KT 090V210 9999 SCT010/// BKN029/// BKN040/// //////TCU 02/M00 Q1010 TEMPO BKN010
Conditions at: EGCC (MANCHESTER INTL , GB) observed 1720 UTC 18 January 2019
Temperature: 2.0°C (36°F)
Dewpoint: 0.0°C (32°F) [RH = 87%]
Pressure (altimeter): 29.82 inches Hg (1010.0 mb)
Winds: from the SSE (150 degrees) at 9 MPH (8 knots; 4.1 m/s)
Visibility: 6 or more miles (10+ km)
Ceiling: 2900 feet AGL
Clouds: scattered clouds at 1000 feet AGL
broken clouds at 2900 feet AGL
broken clouds at 4000 feet AGL
Weather: no significant weather observed at this time

METAR text: EGCC 181650Z AUTO VRB06G17KT 9999 -RA BKN009 02/M00 Q1010 TEMPO BKN010
Conditions at: EGCC (MANCHESTER INTL , GB) observed 1650 UTC 18 January 2019
Temperature: 2.0°C (36°F)
Dewpoint: 0.0°C (32°F) [RH = 87%]
Pressure (altimeter): 29.82 inches Hg (1010.0 mb)
Winds: variable direction winds at 7 MPH (6 knots; 3.1 m/s)
gusting to 20 MPH (17 knots; 8.7 m/s)
Visibility: 6 or more miles (10+ km)
Ceiling: 900 feet AGL
Clouds: broken clouds at 900 feet AGL
Weather: -RA  (light rain)

METAR text: EGCC 181620Z AUTO 15008KT 100V200 9999 -RA BKN011 BKN037 02/M00 Q1010
Conditions at: EGCC (MANCHESTER INTL , GB) observed 1620 UTC 18 January 2019
Temperature: 2.0°C (36°F)
Dewpoint: 0.0°C (32°F) [RH = 87%]
Pressure (altimeter): 29.82 inches Hg (1010.0 mb)
Winds: from the SSE (150 degrees) at 9 MPH (8 knots; 4.1 m/s)
Visibility: 6 or more miles (10+ km)
Ceiling: 1100 feet AGL
Clouds: broken clouds at 1100 feet AGL
broken clouds at 3700 feet AGL
Weather: -RA  (light rain)

METAR text: EGCC 181550Z 15008KT 100V190 9999 -RA SCT015 OVC036 03/00 Q1010 TEMPO BKN014
Conditions at: EGCC (MANCHESTER INTL , GB) observed 1550 UTC 18 January 2019
Temperature: 3.0°C (37°F)
Dewpoint: 0.0°C (32°F) [RH = 81%]
Pressure (altimeter): 29.82 inches Hg (1010.0 mb)
Winds: from the SSE (150 degrees) at 9 MPH (8 knots; 4.1 m/s)
Visibility: 6 or more miles (10+ km)
Ceiling: 3600 feet AGL
Clouds: scattered clouds at 1500 feet AGL
overcast cloud deck at 3600 feet AGL
Weather: -RA  (light rain)

METAR text: EGCC 181520Z 14006KT 090V180 9999 -RA FEW038 BKN045 04/00 Q1010 TEMPO RASN
Conditions at: EGCC (MANCHESTER INTL , GB) observed 1520 UTC 18 January 2019
Temperature: 4.0°C (39°F)
Dewpoint: 0.0°C (32°F) [RH = 75%]
Pressure (altimeter): 29.82 inches Hg (1010.0 mb)
Winds: from the SE (140 degrees) at 7 MPH (6 knots; 3.1 m/s)
Visibility: 6 or more miles (10+ km)
Ceiling: 4500 feet AGL
Clouds: few clouds at 3800 feet AGL
broken clouds at 4500 feet AGL
Weather: -RA  (light rain)

METAR text: EGCC 181450Z 14008KT 090V190 9999 VCSH SCT031 BKN047 03/00 Q1010 TEMPO RASN
Conditions at: EGCC (MANCHESTER INTL , GB) observed 1450 UTC 18 January 2019
Temperature: 3.0°C (37°F)
Dewpoint: 0.0°C (32°F) [RH = 81%]
Pressure (altimeter): 29.82 inches Hg (1010.0 mb)
Winds: from the SE (140 degrees) at 9 MPH (8 knots; 4.1 m/s)
Visibility: 6 or more miles (10+ km)
Ceiling: 4700 feet AGL
Clouds: scattered clouds at 3100 feet AGL
broken clouds at 4700 feet AGL
Weather: VCSH  (showers in vicinity)

METAR text: EGCC 181420Z AUTO 15007KT 100V230 9999 -RA FEW016/// SCT030/// BKN037/// //////TCU 03/00 Q1011 TEMPO RASN
Conditions at: EGCC (MANCHESTER INTL , GB) observed 1420 UTC 18 January 2019
Temperature: 3.0°C (37°F)
Dewpoint: 0.0°C (32°F) [RH = 81%]
Pressure (altimeter): 29.85 inches Hg (1011.0 mb)
Winds: from the SSE (150 degrees) at 8 MPH (7 knots; 3.6 m/s)
Visibility: 6 or more miles (10+ km)
Ceiling: 3700 feet AGL
Clouds: few clouds at 1600 feet AGL
scattered clouds at 3000 feet AGL
broken clouds at 3700 feet AGL
Weather: -RA  (light rain)

METAR text: EGCC 181350Z 14007KT 100V190 9999 -SNRA FEW032 BKN048 03/M00 Q1011 TEMPO RASN
Conditions at: EGCC (MANCHESTER INTL , GB) observed 1350 UTC 18 January 2019
Temperature: 3.0°C (37°F)
Dewpoint: 0.0°C (32°F) [RH = 81%]
Pressure (altimeter): 29.85 inches Hg (1011.0 mb)
Winds: from the SE (140 degrees) at 8 MPH (7 knots; 3.6 m/s)
Visibility: 6 or more miles (10+ km)
Ceiling: 4800 feet AGL
Clouds: few clouds at 3200 feet AGL
broken clouds at 4800 feet AGL
Weather: -SN -RA  (light snow, light rain)

METAR text: EGCC 181320Z 15007KT 110V220 9999 -SNRA BKN025 03/M01 Q1012 RESN RERA TEMPO RASN
Conditions at: EGCC (MANCHESTER INTL , GB) observed 1320 UTC 18 January 2019
Temperature: 3.0°C (37°F)
Dewpoint: -1.0°C (30°F) [RH = 75%]
Pressure (altimeter): 29.88 inches Hg (1012.0 mb)
Winds: from the SSE (150 degrees) at 8 MPH (7 knots; 3.6 m/s)
Visibility: 6 or more miles (10+ km)
Ceiling: 2500 feet AGL
Clouds: broken clouds at 2500 feet AGL
Weather: -SN -RA RA  (light snow, light rain, moderate rain)

METAR text: EGCC 181250Z AUTO 16005KT 100V220 9999 //////TCU 04/M02 Q1012 BECMG BKN025
Conditions at: EGCC (MANCHESTER INTL , GB) observed 1250 UTC 18 January 2019
Temperature: 4.0°C (39°F)
Dewpoint: -2.0°C (28°F) [RH = 65%]
Pressure (altimeter): 29.88 inches Hg (1012.0 mb)
Winds: from the SSE (160 degrees) at 6 MPH (5 knots; 2.6 m/s)
Visibility: 6 or more miles (10+ km)
Ceiling: unknown
Clouds: missing
Weather: no significant weather observed at this time

METAR text: EGCC 181220Z AUTO 16006KT 110V210 9999 SCT036/// //////TCU 04/M02 Q1012 NOSIG
Conditions at: EGCC (MANCHESTER INTL , GB) observed 1220 UTC 18 January 2019
Temperature: 4.0°C (39°F)
Dewpoint: -2.0°C (28°F) [RH = 65%]
Pressure (altimeter): 29.88 inches Hg (1012.0 mb)
Winds: from the SSE (160 degrees) at 7 MPH (6 knots; 3.1 m/s)
Visibility: 6 or more miles (10+ km)
Ceiling: at least 12,000 feet AGL
Clouds: scattered clouds at 3600 feet AGL
Weather: no significant weather observed at this time

METAR text: EGCC 181150Z AUTO 15007KT 110V190 9999 BKN034 04/M03 Q1013 NOSIG
Conditions at: EGCC (MANCHESTER INTL , GB) observed 1150 UTC 18 January 2019
Temperature: 4.0°C (39°F)
Dewpoint: -3.0°C (27°F) [RH = 60%]
Pressure (altimeter): 29.91 inches Hg (1013.0 mb)
Winds: from the SSE (150 degrees) at 8 MPH (7 knots; 3.6 m/s)
Visibility: 6 or more miles (10+ km)
Ceiling: 3400 feet AGL
Clouds: broken clouds at 3400 feet AGL
Weather: no significant weather observed at this time

METAR text: EGCC 181120Z AUTO 15007KT 110V250 9999 SCT039 03/M03 Q1013 NOSIG
Conditions at: EGCC (MANCHESTER INTL , GB) observed 1120 UTC 18 January 2019
Temperature: 3.0°C (37°F)
Dewpoint: -3.0°C (27°F) [RH = 65%]
Pressure (altimeter): 29.91 inches Hg (1013.0 mb)
Winds: from the SSE (150 degrees) at 8 MPH (7 knots; 3.6 m/s)
Visibility: 6 or more miles (10+ km)
Ceiling: at least 12,000 feet AGL
Clouds: scattered clouds at 3900 feet AGL
Weather: no significant weather observed at this time

METAR text: EGCC 181050Z AUTO 15008KT 110V200 9999 NCD 03/M03 Q1013 BECMG BKN025
Conditions at: EGCC (MANCHESTER INTL , GB) observed 1050 UTC 18 January 2019
Temperature: 3.0°C (37°F)
Dewpoint: -3.0°C (27°F) [RH = 65%]
Pressure (altimeter): 29.91 inches Hg (1013.0 mb)
Winds: from the SSE (150 degrees) at 9 MPH (8 knots; 4.1 m/s)
Visibility: 6 or more miles (10+ km)
Ceiling: at least 12,000 feet AGL
Clouds: sky clear below 12,000 feet AGL
Weather: no significant weather observed at this time

METAR text: EGCC 181020Z AUTO 14007KT 070V200 9999 NCD 03/M03 Q1013 NOSIG
Conditions at: EGCC (MANCHESTER INTL , GB) observed 1020 UTC 18 January 2019
Temperature: 3.0°C (37°F)
Dewpoint: -3.0°C (27°F) [RH = 65%]
Pressure (altimeter): 29.91 inches Hg (1013.0 mb)
Winds: from the SE (140 degrees) at 8 MPH (7 knots; 3.6 m/s)
Visibility: 6 or more miles (10+ km)
Ceiling: at least 12,000 feet AGL
Clouds: sky clear below 12,000 feet AGL
Weather: no significant weather observed at this time

METAR text: EGCC 180950Z AUTO 14007KT 100V190 9999 NCD 02/M04 Q1014 NOSIG
Conditions at: EGCC (MANCHESTER INTL , GB) observed 0950 UTC 18 January 2019
Temperature: 2.0°C (36°F)
Dewpoint: -4.0°C (25°F) [RH = 64%]
Pressure (altimeter): 29.94 inches Hg (1014.0 mb)
Winds: from the SE (140 degrees) at 8 MPH (7 knots; 3.6 m/s)
Visibility: 6 or more miles (10+ km)
Ceiling: at least 12,000 feet AGL
Clouds: sky clear below 12,000 feet AGL
Weather: no significant weather observed at this time

METAR text: EGCC 180920Z AUTO 15006KT 100V190 9999 NCD 02/M04 Q1014 NOSIG
Conditions at: EGCC (MANCHESTER INTL , GB) observed 0920 UTC 18 January 2019
Temperature: 2.0°C (36°F)
Dewpoint: -4.0°C (25°F) [RH = 64%]
Pressure (altimeter): 29.94 inches Hg (1014.0 mb)
Winds: from the SSE (150 degrees) at 7 MPH (6 knots; 3.1 m/s)
Visibility: 6 or more miles (10+ km)
Ceiling: at least 12,000 feet AGL
Clouds: sky clear below 12,000 feet AGL
Weather: no significant weather observed at this time

METAR text: EGCC 180850Z AUTO 14006KT 110V210 9999 NCD 02/M04 Q1014 NOSIG
Conditions at: EGCC (MANCHESTER INTL , GB) observed 0850 UTC 18 January 2019
Temperature: 2.0°C (36°F)
Dewpoint: -4.0°C (25°F) [RH = 64%]
Pressure (altimeter): 29.94 inches Hg (1014.0 mb)
Winds: from the SE (140 degrees) at 7 MPH (6 knots; 3.1 m/s)
Visibility: 6 or more miles (10+ km)
Ceiling: at least 12,000 feet AGL
Clouds: sky clear below 12,000 feet AGL
Weather: no significant weather observed at this time

METAR text: EGCC 180820Z AUTO 15005KT 100V180 9999 NCD 01/M05 Q1014 NOSIG
Conditions at: EGCC (MANCHESTER INTL , GB) observed 0820 UTC 18 January 2019
Temperature: 1.0°C (34°F)
Dewpoint: -5.0°C (23°F) [RH = 64%]
Pressure (altimeter): 29.94 inches Hg (1014.0 mb)
Winds: from the SSE (150 degrees) at 6 MPH (5 knots; 2.6 m/s)
Visibility: 6 or more miles (10+ km)
Ceiling: at least 12,000 feet AGL
Clouds: sky clear below 12,000 feet AGL
Weather: no significant weather observed at this time

METAR text: EGCC 180750Z AUTO 13005KT 090V190 9999 NCD 01/M04 Q1014 NOSIG
Conditions at: EGCC (MANCHESTER INTL , GB) observed 0750 UTC 18 January 2019
Temperature: 1.0°C (34°F)
Dewpoint: -4.0°C (25°F) [RH = 69%]
Pressure (altimeter): 29.94 inches Hg (1014.0 mb)
Winds: from the SE (130 degrees) at 6 MPH (5 knots; 2.6 m/s)
Visibility: 6 or more miles (10+ km)
Ceiling: at least 12,000 feet AGL
Clouds: sky clear below 12,000 feet AGL
Weather: no significant weather observed at this time

METAR text: EGCC 180720Z AUTO 13005KT 090V190 9999 NCD 01/M04 Q1014 NOSIG
Conditions at: EGCC (MANCHESTER INTL , GB) observed 0720 UTC 18 January 2019
Temperature: 1.0°C (34°F)
Dewpoint: -4.0°C (25°F) [RH = 69%]
Pressure (altimeter): 29.94 inches Hg (1014.0 mb)
Winds: from the SE (130 degrees) at 6 MPH (5 knots; 2.6 m/s)
Visibility: 6 or more miles (10+ km)
Ceiling: at least 12,000 feet AGL
Clouds: sky clear below 12,000 feet AGL
Weather: no significant weather observed at this time

METAR text: EGCC 180650Z AUTO 14006KT 090V170 9999 NCD 01/M05 Q1015 NOSIG
Conditions at: EGCC (MANCHESTER INTL , GB) observed 0650 UTC 18 January 2019
Temperature: 1.0°C (34°F)
Dewpoint: -5.0°C (23°F) [RH = 64%]
Pressure (altimeter): 29.97 inches Hg (1015.0 mb)
Winds: from the SE (140 degrees) at 7 MPH (6 knots; 3.1 m/s)
Visibility: 6 or more miles (10+ km)
Ceiling: at least 12,000 feet AGL
Clouds: sky clear below 12,000 feet AGL
Weather: no significant weather observed at this time

METAR text: EGCC 180620Z AUTO 14004KT 090V250 9999 NCD 01/M04 Q1015 NOSIG
Conditions at: EGCC (MANCHESTER INTL , GB) observed 0620 UTC 18 January 2019
Temperature: 1.0°C (34°F)
Dewpoint: -4.0°C (25°F) [RH = 69%]
Pressure (altimeter): 29.97 inches Hg (1015.0 mb)
Winds: from the SE (140 degrees) at 5 MPH (4 knots; 2.1 m/s)
Visibility: 6 or more miles (10+ km)
Ceiling: at least 12,000 feet AGL
Clouds: sky clear below 12,000 feet AGL
Weather: no significant weather observed at this time

METAR text: EGCC 180550Z AUTO 15004KT 090V200 9999 NCD 01/M04 Q1015 NOSIG
Conditions at: EGCC (MANCHESTER INTL , GB) observed 0550 UTC 18 January 2019
Temperature: 1.0°C (34°F)
Dewpoint: -4.0°C (25°F) [RH = 69%]
Pressure (altimeter): 29.97 inches Hg (1015.0 mb)
Winds: from the SSE (150 degrees) at 5 MPH (4 knots; 2.1 m/s)
Visibility: 6 or more miles (10+ km)
Ceiling: at least 12,000 feet AGL
Clouds: sky clear below 12,000 feet AGL
Weather: no significant weather observed at this time

METAR text: EGCC 180520Z AUTO 15004KT 080V220 9999 NCD 01/M04 Q1015 NOSIG
Conditions at: EGCC (MANCHESTER INTL , GB) observed 0520 UTC 18 January 2019
Temperature: 1.0°C (34°F)
Dewpoint: -4.0°C (25°F) [RH = 69%]
Pressure (altimeter): 29.97 inches Hg (1015.0 mb)
Winds: from the SSE (150 degrees) at 5 MPH (4 knots; 2.1 m/s)
Visibility: 6 or more miles (10+ km)
Ceiling: at least 12,000 feet AGL
Clouds: sky clear below 12,000 feet AGL
Weather: no significant weather observed at this time

METAR text: EGCC 180450Z AUTO 15004KT 080V200 9999 NCD 00/M04 Q1016 NOSIG
Conditions at: EGCC (MANCHESTER INTL , GB) observed 0450 UTC 18 January 2019
Temperature: 0.0°C (32°F)
Dewpoint: -4.0°C (25°F) [RH = 74%]
Pressure (altimeter): 30.00 inches Hg (1016.0 mb)
Winds: from the SSE (150 degrees) at 5 MPH (4 knots; 2.1 m/s)
Visibility: 6 or more miles (10+ km)
Ceiling: at least 12,000 feet AGL
Clouds: sky clear below 12,000 feet AGL
Weather: no significant weather observed at this time

METAR text: EGCC 180420Z AUTO VRB02KT 9999 NCD 00/M04 Q1016 NOSIG
Conditions at: EGCC (MANCHESTER INTL , GB) observed 0420 UTC 18 January 2019
Temperature: 0.0°C (32°F)
Dewpoint: -4.0°C (25°F) [RH = 74%]
Pressure (altimeter): 30.00 inches Hg (1016.0 mb)
Winds: variable direction winds at 2 MPH (2 knots; 1.0 m/s)
Visibility: 6 or more miles (10+ km)
Ceiling: at least 12,000 feet AGL
Clouds: sky clear below 12,000 feet AGL
Weather: no significant weather observed at this time

METAR text: EGCC 180350Z AUTO VRB03KT 9999 NCD M00/M04 Q1016 NOSIG
Conditions at: EGCC (MANCHESTER INTL , GB) observed 0350 UTC 18 January 2019
Temperature: 0.0°C (32°F)
Dewpoint: -4.0°C (25°F) [RH = 74%]
Pressure (altimeter): 30.00 inches Hg (1016.0 mb)
Winds: variable direction winds at 3 MPH (3 knots; 1.5 m/s)
Visibility: 6 or more miles (10+ km)
Ceiling: at least 12,000 feet AGL
Clouds: sky clear below 12,000 feet AGL
Weather: no significant weather observed at this time

METAR text: EGCC 180320Z AUTO VRB03KT 9999 NCD M01/M04 Q1016 NOSIG
Conditions at: EGCC (MANCHESTER INTL , GB) observed 0320 UTC 18 January 2019
Temperature: -1.0°C (30°F)
Dewpoint: -4.0°C (25°F) [RH = 80%]
Pressure (altimeter): 30.00 inches Hg (1016.0 mb)
Winds: variable direction winds at 3 MPH (3 knots; 1.5 m/s)
Visibility: 6 or more miles (10+ km)
Ceiling: at least 12,000 feet AGL
Clouds: sky clear below 12,000 feet AGL
Weather: no significant weather observed at this time

METAR text: EGCC 180250Z AUTO VRB01KT 9999 NCD M02/M04 Q1017 NOSIG
Conditions at: EGCC (MANCHESTER INTL , GB) observed 0250 UTC 18 January 2019
Temperature: -2.0°C (28°F)
Dewpoint: -4.0°C (25°F) [RH = 86%]
Pressure (altimeter): 30.03 inches Hg (1017.0 mb)
Winds: variable direction winds at 1 MPH (1 knots; 0.5 m/s)
Visibility: 6 or more miles (10+ km)
Ceiling: at least 12,000 feet AGL
Clouds: sky clear below 12,000 feet AGL
Weather: no significant weather observed at this time

METAR text: EGCC 180220Z AUTO VRB02KT 9999 NCD M02/M04 Q1017
Conditions at: EGCC (MANCHESTER INTL , GB) observed 0220 UTC 18 January 2019
Temperature: -2.0°C (28°F)
Dewpoint: -4.0°C (25°F) [RH = 86%]
Pressure (altimeter): 30.03 inches Hg (1017.0 mb)
Winds: variable direction winds at 2 MPH (2 knots; 1.0 m/s)
Visibility: 6 or more miles (10+ km)
Ceiling: at least 12,000 feet AGL
Clouds: sky clear below 12,000 feet AGL
Weather: no significant weather observed at this time

METAR text: EGCC 180150Z AUTO VRB03KT 9999 NCD M02/M04 Q1017 NOSIG
Conditions at: EGCC (MANCHESTER INTL , GB) observed 0150 UTC 18 January 2019
Temperature: -2.0°C (28°F)
Dewpoint: -4.0°C (25°F) [RH = 86%]
Pressure (altimeter): 30.03 inches Hg (1017.0 mb)
Winds: variable direction winds at 3 MPH (3 knots; 1.5 m/s)
Visibility: 6 or more miles (10+ km)
Ceiling: at least 12,000 feet AGL
Clouds: sky clear below 12,000 feet AGL
Weather: no significant weather observed at this time

METAR text: EGCC 180120Z AUTO VRB03KT 9999 NCD M02/M04 Q1017 NOSIG
Conditions at: EGCC (MANCHESTER INTL , GB) observed 0120 UTC 18 January 2019
Temperature: -2.0°C (28°F)
Dewpoint: -4.0°C (25°F) [RH = 86%]
Pressure (altimeter): 30.03 inches Hg (1017.0 mb)
Winds: variable direction winds at 3 MPH (3 knots; 1.5 m/s)
Visibility: 6 or more miles (10+ km)
Ceiling: at least 12,000 feet AGL
Clouds: sky clear below 12,000 feet AGL
Weather: no significant weather observed at this time

METAR text: EGCC 180050Z AUTO VRB01KT 9999 NCD M02/M04 Q1017 NOSIG
Conditions at: EGCC (MANCHESTER INTL , GB) observed 0050 UTC 18 January 2019
Temperature: -2.0°C (28°F)
Dewpoint: -4.0°C (25°F) [RH = 86%]
Pressure (altimeter): 30.03 inches Hg (1017.0 mb)
Winds: variable direction winds at 1 MPH (1 knots; 0.5 m/s)
Visibility: 6 or more miles (10+ km)
Ceiling: at least 12,000 feet AGL
Clouds: sky clear below 12,000 feet AGL
Weather: no significant weather observed at this time

METAR text: EGCC 180020Z AUTO VRB01KT 9999 NCD M01/M04 Q1018 NOSIG
Conditions at: EGCC (MANCHESTER INTL , GB) observed 0020 UTC 18 January 2019
Temperature: -1.0°C (30°F)
Dewpoint: -4.0°C (25°F) [RH = 80%]
Pressure (altimeter): 30.06 inches Hg (1018.0 mb)
Winds: variable direction winds at 1 MPH (1 knots; 0.5 m/s)
Visibility: 6 or more miles (10+ km)
Ceiling: at least 12,000 feet AGL
Clouds: sky clear below 12,000 feet AGL
Weather: no significant weather observed at this time

Forecast for: EGCC (MANCHESTER INTL , GB)
Text: TAF EGCC 191100Z 1912/2018 14006KT 9999 FEW012 SCT030
Forecast period: 1200 UTC 19 January 2019 to 0600 UTC 20 January 2019
Forecast type: FROM: standard forecast or significant change
Winds: from the SE (140 degrees) at 7 MPH (6 knots; 3.1 m/s)
Visibility: 6 or more miles 10+ km)
Ceiling: at least 12,000 feet AGL
Clouds: few clouds at 1200 feet AGL
scattered clouds at 3000 feet AGL
Weather: no significant weather forecast for this period
Text: TEMPO 1912/2006 8000 -RA BKN012
Forecast period: 1200 UTC 19 January 2019 to 0600 UTC 20 January 2019
Forecast type: TEMPORARY: The following changes expected for less than half the time period
Visibility: 5 miles (8 km)
Ceiling: 1200 feet AGL
Clouds: broken clouds at 1200 feet AGL
Weather: -RA  (light rain)
Text: PROB30
Forecast period: 1200 UTC 19 January 2019 to 0600 UTC 20 January 2019
Forecast type: TEMPORARY: The following changes expected for less than half the time period
Visibility: 2.49 miles (4.01 km)
Ceiling: 800 feet AGL
Clouds: broken clouds at 800 feet AGL
Weather: RA DZ  (moderate rain, moderate drizzle)
Text: TEMPO 1912/2006 4000 RADZ BKN008
Forecast period: 0600 to 0900 UTC 20 January 2019
Forecast type: BECOMING: Conditions expected to become as follows by 0900 UTC 20 January 2019
Winds: from the SE (140 degrees) at 7 MPH (6 knots; 3.1 m/s)
Visibility: 1.86 miles (2.99 km)
Ceiling: 600 feet AGL
Clouds: broken clouds at 600 feet AGL
Weather: -RA -DZ BR  (light rain, light drizzle, mist)
Text: BECMG 2006/2009 3000 -RADZ BR BKN006
Forecast period: 0900 to 1800 UTC 20 January 2019
Forecast type: BECOMING: Conditions expected to become as follows by 1200 UTC 20 January 2019
Winds: from the WNW (300 degrees) at 12 MPH (10 knots; 5.1 m/s)
Visibility: 6 or more miles 10+ km)
Ceiling: at least 12,000 feet AGL
Clouds: few clouds at 800 feet AGL
scattered clouds at 3000 feet AGL
Weather: NSW  (no significant weather)
Text: BECMG 2009/2012 30010KT 9999 NSW FEW008 SCT030
Forecast period: 1200 to 1800 UTC 20 January 2019
Forecast type: TEMPORARY: The following changes expected for less than half the time period
Visibility: 4 miles (6 km)
Ceiling: 800 feet AGL
Clouds: broken clouds at 800 feet AGL
Weather: -RA  (light rain)